ミラノ/マルペンサ の空港の天気 - METARとTAF

ミラノ・マルペンサ国際空港 ( LIMC / MXP ) - イタリア ミラノ
飛行場実況気象(Metar)
観測時間01/24 01:20 CET (01/24 00:20 UTC)
風向・風速北北東 3m/s
視程6000m
天気現象
なし
気温-3℃
湿度93%
気圧1029hPa
METARLIMC 240020Z 02005KT 6000 NSC M03/M04 Q1029 NOSIG
過去の天気等 Google飛行場航空写真 Wunderground天気予報

過去48時間のMETAR

飛行場予報(TAF)
発表時間: 1/24 00:00 CET (1/23 23:00 UTC)
予報対象時間: 24日1時 CET ~ 25日7時 CET
風向・風速不定 3m/s
視程10km以上
全天の4割程度の雲 雲底高度 910m
全天の4割程度の雲 雲底高度 1830m
24日4時 CET ~ 24日8時 CET に一時的に
視程3000m
天気現象散在した霧
TAF LIMC 232300Z 2400/2506 VRB05KT 9999 SCT030 SCT060
TEMPO 2403/2407 3000 BCFG